sensor_id;sensor_type;location;lat;lon;timestamp;temperature;humidity
48912;DHT22;34722;52.108;5.044;2023-05-07T00:01:45;14.60;99.90
48912;DHT22;34722;52.108;5.044;2023-05-07T00:04:13;14.50;99.90
48912;DHT22;34722;52.108;5.044;2023-05-07T00:06:39;14.60;99.90
48912;DHT22;34722;52.108;5.044;2023-05-07T00:09:06;14.60;99.90
48912;DHT22;34722;52.108;5.044;2023-05-07T00:11:33;14.60;99.90
48912;DHT22;34722;52.108;5.044;2023-05-07T00:13:59;14.60;99.90
48912;DHT22;34722;52.108;5.044;2023-05-07T00:16:25;14.60;99.90
48912;DHT22;34722;52.108;5.044;2023-05-07T00:18:52;14.60;99.90
48912;DHT22;34722;52.108;5.044;2023-05-07T00:21:19;14.60;99.90
48912;DHT22;34722;52.108;5.044;2023-05-07T00:23:47;14.60;99.90
48912;DHT22;34722;52.108;5.044;2023-05-07T00:26:13;14.70;99.90
48912;DHT22;34722;52.108;5.044;2023-05-07T00:28:39;14.70;99.90
48912;DHT22;34722;52.108;5.044;2023-05-07T00:31:05;14.70;99.90
48912;DHT22;34722;52.108;5.044;2023-05-07T00:33:35;14.70;99.90
48912;DHT22;34722;52.108;5.044;2023-05-07T00:36:21;14.70;99.90
48912;DHT22;34722;52.108;5.044;2023-05-07T00:38:48;14.70;99.90
48912;DHT22;34722;52.108;5.044;2023-05-07T00:41:15;14.70;99.90
48912;DHT22;34722;52.108;5.044;2023-05-07T00:43:50;14.80;99.90
48912;DHT22;34722;52.108;5.044;2023-05-07T00:46:21;14.70;99.90
48912;DHT22;34722;52.108;5.044;2023-05-07T00:48:48;14.70;99.90
48912;DHT22;34722;52.108;5.044;2023-05-07T00:51:14;14.70;99.90
48912;DHT22;34722;52.108;5.044;2023-05-07T00:53:44;14.60;99.90
48912;DHT22;34722;52.108;5.044;2023-05-07T00:56:22;14.60;99.90
48912;DHT22;34722;52.108;5.044;2023-05-07T00:58:49;14.50;99.90
48912;DHT22;34722;52.108;5.044;2023-05-07T01:01:16;14.50;99.90
48912;DHT22;34722;52.108;5.044;2023-05-07T01:03:43;14.40;99.90
48912;DHT22;34722;52.108;5.044;2023-05-07T01:06:09;14.40;99.90
48912;DHT22;34722;52.108;5.044;2023-05-07T01:08:43;14.40;99.90
48912;DHT22;34722;52.108;5.044;2023-05-07T01:11:13;14.40;99.90
48912;DHT22;34722;52.108;5.044;2023-05-07T01:13:49;14.40;99.90
48912;DHT22;34722;52.108;5.044;2023-05-07T01:16:17;14.40;99.90
48912;DHT22;34722;52.108;5.044;2023-05-07T01:18:43;14.40;99.90
48912;DHT22;34722;52.108;5.044;2023-05-07T01:21:11;14.40;99.90
48912;DHT22;34722;52.108;5.044;2023-05-07T01:23:41;14.30;99.90
48912;DHT22;34722;52.108;5.044;2023-05-07T01:26:08;14.30;99.90
48912;DHT22;34722;52.108;5.044;2023-05-07T01:28:34;14.30;99.90
48912;DHT22;34722;52.108;5.044;2023-05-07T01:31:03;14.30;99.90
48912;DHT22;34722;52.108;5.044;2023-05-07T01:33:31;14.30;99.90
48912;DHT22;34722;52.108;5.044;2023-05-07T01:35:59;14.30;99.90
48912;DHT22;34722;52.108;5.044;2023-05-07T01:38:32;14.30;99.90
48912;DHT22;34722;52.108;5.044;2023-05-07T01:40:58;14.30;99.90
48912;DHT22;34722;52.108;5.044;2023-05-07T01:43:24;14.30;99.90
48912;DHT22;34722;52.108;5.044;2023-05-07T01:45:50;14.30;99.90
48912;DHT22;34722;52.108;5.044;2023-05-07T01:48:15;14.30;99.90
48912;DHT22;34722;52.108;5.044;2023-05-07T01:50:42;14.20;99.90
48912;DHT22;34722;52.108;5.044;2023-05-07T01:53:08;14.20;99.90
48912;DHT22;34722;52.108;5.044;2023-05-07T01:55:34;14.20;99.90
48912;DHT22;34722;52.108;5.044;2023-05-07T01:58:02;14.30;99.90
48912;DHT22;34722;52.108;5.044;2023-05-07T02:00:28;14.30;99.90
48912;DHT22;34722;52.108;5.044;2023-05-07T02:02:54;14.30;99.90
48912;DHT22;34722;52.108;5.044;2023-05-07T02:05:20;14.30;99.90
48912;DHT22;34722;52.108;5.044;2023-05-07T02:07:46;14.30;99.90
48912;DHT22;34722;52.108;5.044;2023-05-07T02:10:12;14.30;99.90
48912;DHT22;34722;52.108;5.044;2023-05-07T02:12:39;14.30;99.90
48912;DHT22;34722;52.108;5.044;2023-05-07T02:15:05;14.40;99.90
48912;DHT22;34722;52.108;5.044;2023-05-07T02:17:32;14.40;99.90
48912;DHT22;34722;52.108;5.044;2023-05-07T02:19:58;14.40;99.90
48912;DHT22;34722;52.108;5.044;2023-05-07T02:22:25;14.40;99.90
48912;DHT22;34722;52.108;5.044;2023-05-07T02:24:51;14.40;99.90
48912;DHT22;34722;52.108;5.044;2023-05-07T02:27:26;14.40;99.90
48912;DHT22;34722;52.108;5.044;2023-05-07T02:29:53;14.30;99.90
48912;DHT22;34722;52.108;5.044;2023-05-07T02:32:23;14.30;99.90
48912;DHT22;34722;52.108;5.044;2023-05-07T02:37:27;14.30;99.90
48912;DHT22;34722;52.108;5.044;2023-05-07T02:39:52;14.30;99.90
48912;DHT22;34722;52.108;5.044;2023-05-07T02:42:18;14.30;99.90
48912;DHT22;34722;52.108;5.044;2023-05-07T02:44:44;14.30;99.90
48912;DHT22;34722;52.108;5.044;2023-05-07T02:47:09;14.20;99.90
48912;DHT22;34722;52.108;5.044;2023-05-07T02:49:35;14.20;99.90
48912;DHT22;34722;52.108;5.044;2023-05-07T02:52:01;14.20;99.90
48912;DHT22;34722;52.108;5.044;2023-05-07T02:54:27;14.20;99.90
48912;DHT22;34722;52.108;5.044;2023-05-07T02:56:52;14.20;99.90
48912;DHT22;34722;52.108;5.044;2023-05-07T02:59:18;14.10;99.90
48912;DHT22;34722;52.108;5.044;2023-05-07T03:01:44;14.10;99.90
48912;DHT22;34722;52.108;5.044;2023-05-07T03:04:10;14.10;99.90
48912;DHT22;34722;52.108;5.044;2023-05-07T03:06:36;14.00;99.90
48912;DHT22;34722;52.108;5.044;2023-05-07T03:09:02;14.00;99.90
48912;DHT22;34722;52.108;5.044;2023-05-07T03:11:28;13.90;99.90
48912;DHT22;34722;52.108;5.044;2023-05-07T03:13:54;13.90;99.90
48912;DHT22;34722;52.108;5.044;2023-05-07T03:16:19;13.90;99.90
48912;DHT22;34722;52.108;5.044;2023-05-07T03:18:45;13.90;99.90
48912;DHT22;34722;52.108;5.044;2023-05-07T03:21:11;13.80;99.90
48912;DHT22;34722;52.108;5.044;2023-05-07T03:23:37;13.80;99.90
48912;DHT22;34722;52.108;5.044;2023-05-07T03:26:02;13.70;99.90
48912;DHT22;34722;52.108;5.044;2023-05-07T03:28:28;13.70;99.90
48912;DHT22;34722;52.108;5.044;2023-05-07T03:30:54;13.70;99.90
48912;DHT22;34722;52.108;5.044;2023-05-07T03:33:19;13.70;99.90
48912;DHT22;34722;52.108;5.044;2023-05-07T03:35:45;13.60;99.90
48912;DHT22;34722;52.108;5.044;2023-05-07T03:38:11;13.70;99.90
48912;DHT22;34722;52.108;5.044;2023-05-07T03:40:36;13.70;99.90
48912;DHT22;34722;52.108;5.044;2023-05-07T03:43:02;13.80;99.90
48912;DHT22;34722;52.108;5.044;2023-05-07T03:45:28;13.90;99.90
48912;DHT22;34722;52.108;5.044;2023-05-07T03:47:53;13.90;99.90
48912;DHT22;34722;52.108;5.044;2023-05-07T03:50:19;13.90;99.90
48912;DHT22;34722;52.108;5.044;2023-05-07T03:52:45;14.00;99.90
48912;DHT22;34722;52.108;5.044;2023-05-07T03:55:11;14.00;99.90
48912;DHT22;34722;52.108;5.044;2023-05-07T03:57:37;13.90;99.90
48912;DHT22;34722;52.108;5.044;2023-05-07T04:00:03;13.90;99.90
48912;DHT22;34722;52.108;5.044;2023-05-07T04:02:29;13.90;99.90
48912;DHT22;34722;52.108;5.044;2023-05-07T04:04:55;13.90;99.90
48912;DHT22;34722;52.108;5.044;2023-05-07T04:07:21;13.90;99.90
48912;DHT22;34722;52.108;5.044;2023-05-07T04:09:47;14.00;99.90
48912;DHT22;34722;52.108;5.044;2023-05-07T04:12:13;14.00;99.90
48912;DHT22;34722;52.108;5.044;2023-05-07T04:14:38;14.10;99.90
48912;DHT22;34722;52.108;5.044;2023-05-07T04:17:04;14.10;99.90
48912;DHT22;34722;52.108;5.044;2023-05-07T04:19:33;14.10;99.90
48912;DHT22;34722;52.108;5.044;2023-05-07T04:21:59;14.10;99.90
48912;DHT22;34722;52.108;5.044;2023-05-07T04:24:24;14.20;99.90
48912;DHT22;34722;52.108;5.044;2023-05-07T04:26:50;14.20;99.90
48912;DHT22;34722;52.108;5.044;2023-05-07T04:29:16;14.20;99.90
48912;DHT22;34722;52.108;5.044;2023-05-07T04:31:42;14.20;99.90
48912;DHT22;34722;52.108;5.044;2023-05-07T04:34:10;14.20;99.90
48912;DHT22;34722;52.108;5.044;2023-05-07T04:36:39;14.30;99.90
48912;DHT22;34722;52.108;5.044;2023-05-07T04:39:05;14.30;99.90
48912;DHT22;34722;52.108;5.044;2023-05-07T04:41:32;14.40;99.90
48912;DHT22;34722;52.108;5.044;2023-05-07T04:43:57;14.40;99.90
48912;DHT22;34722;52.108;5.044;2023-05-07T04:46:24;14.50;99.90
48912;DHT22;34722;52.108;5.044;2023-05-07T04:48:50;14.50;99.90
48912;DHT22;34722;52.108;5.044;2023-05-07T04:51:16;14.50;99.90
48912;DHT22;34722;52.108;5.044;2023-05-07T04:53:44;14.50;99.90
48912;DHT22;34722;52.108;5.044;2023-05-07T04:56:10;14.50;99.90
48912;DHT22;34722;52.108;5.044;2023-05-07T04:58:36;14.50;99.90
48912;DHT22;34722;52.108;5.044;2023-05-07T05:01:02;14.60;99.90
48912;DHT22;34722;52.108;5.044;2023-05-07T05:03:28;14.70;99.90
48912;DHT22;34722;52.108;5.044;2023-05-07T05:05:53;14.80;99.90
48912;DHT22;34722;52.108;5.044;2023-05-07T05:08:19;14.80;99.90
48912;DHT22;34722;52.108;5.044;2023-05-07T05:10:45;14.70;99.90
48912;DHT22;34722;52.108;5.044;2023-05-07T05:13:11;14.80;99.90
48912;DHT22;34722;52.108;5.044;2023-05-07T05:15:38;14.80;99.90
48912;DHT22;34722;52.108;5.044;2023-05-07T05:18:04;14.90;99.90
48912;DHT22;34722;52.108;5.044;2023-05-07T05:20:30;14.90;99.90
48912;DHT22;34722;52.108;5.044;2023-05-07T05:22:56;14.90;99.90
48912;DHT22;34722;52.108;5.044;2023-05-07T05:25:21;15.00;99.90
48912;DHT22;34722;52.108;5.044;2023-05-07T05:27:47;15.10;99.90
48912;DHT22;34722;52.108;5.044;2023-05-07T05:30:13;15.10;99.90
48912;DHT22;34722;52.108;5.044;2023-05-07T05:32:38;15.00;99.90
48912;DHT22;34722;52.108;5.044;2023-05-07T05:35:10;15.00;99.90
48912;DHT22;34722;52.108;5.044;2023-05-07T05:37:36;15.00;99.90
48912;DHT22;34722;52.108;5.044;2023-05-07T05:40:02;14.90;99.90
48912;DHT22;34722;52.108;5.044;2023-05-07T05:42:27;14.90;99.90
48912;DHT22;34722;52.108;5.044;2023-05-07T05:44:53;14.90;99.90
48912;DHT22;34722;52.108;5.044;2023-05-07T05:47:19;14.80;99.90
48912;DHT22;34722;52.108;5.044;2023-05-07T05:49:45;14.80;99.90
48912;DHT22;34722;52.108;5.044;2023-05-07T05:52:12;14.70;99.90
48912;DHT22;34722;52.108;5.044;2023-05-07T05:54:39;14.80;99.90
48912;DHT22;34722;52.108;5.044;2023-05-07T05:57:04;14.80;99.90
48912;DHT22;34722;52.108;5.044;2023-05-07T05:59:31;14.80;99.90
48912;DHT22;34722;52.108;5.044;2023-05-07T06:01:57;14.90;99.90
48912;DHT22;34722;52.108;5.044;2023-05-07T06:04:22;14.90;99.90
48912;DHT22;34722;52.108;5.044;2023-05-07T06:06:48;14.90;99.90
48912;DHT22;34722;52.108;5.044;2023-05-07T06:09:14;14.90;99.90
48912;DHT22;34722;52.108;5.044;2023-05-07T06:11:39;14.80;99.90
48912;DHT22;34722;52.108;5.044;2023-05-07T06:14:06;14.90;99.90
48912;DHT22;34722;52.108;5.044;2023-05-07T06:16:32;14.90;99.90
48912;DHT22;34722;52.108;5.044;2023-05-07T06:18:57;14.90;99.90
48912;DHT22;34722;52.108;5.044;2023-05-07T06:21:23;15.00;99.90
48912;DHT22;34722;52.108;5.044;2023-05-07T06:23:49;15.00;99.90
48912;DHT22;34722;52.108;5.044;2023-05-07T06:26:15;15.00;99.90
48912;DHT22;34722;52.108;5.044;2023-05-07T06:28:40;15.10;99.90
48912;DHT22;34722;52.108;5.044;2023-05-07T06:31:17;15.20;99.90
48912;DHT22;34722;52.108;5.044;2023-05-07T06:33:46;15.10;99.90
48912;DHT22;34722;52.108;5.044;2023-05-07T06:36:12;15.10;99.90
48912;DHT22;34722;52.108;5.044;2023-05-07T06:38:38;15.10;99.90
48912;DHT22;34722;52.108;5.044;2023-05-07T06:41:05;15.10;99.90
48912;DHT22;34722;52.108;5.044;2023-05-07T06:43:31;15.20;99.90
48912;DHT22;34722;52.108;5.044;2023-05-07T06:45:56;15.20;99.90
48912;DHT22;34722;52.108;5.044;2023-05-07T06:51:44;15.20;99.90
48912;DHT22;34722;52.108;5.044;2023-05-07T06:54:09;15.20;99.90
48912;DHT22;34722;52.108;5.044;2023-05-07T06:56:35;15.20;99.90
48912;DHT22;34722;52.108;5.044;2023-05-07T06:59:02;15.30;99.90
48912;DHT22;34722;52.108;5.044;2023-05-07T07:01:28;15.40;99.90
48912;DHT22;34722;52.108;5.044;2023-05-07T07:03:54;15.30;99.90
48912;DHT22;34722;52.108;5.044;2023-05-07T07:06:20;15.40;99.90
48912;DHT22;34722;52.108;5.044;2023-05-07T07:08:45;15.50;99.90
48912;DHT22;34722;52.108;5.044;2023-05-07T07:11:11;15.60;99.90
48912;DHT22;34722;52.108;5.044;2023-05-07T07:13:37;15.70;99.90
48912;DHT22;34722;52.108;5.044;2023-05-07T07:16:03;15.80;99.90
48912;DHT22;34722;52.108;5.044;2023-05-07T07:18:29;15.90;99.90
48912;DHT22;34722;52.108;5.044;2023-05-07T07:20:55;15.80;99.90
48912;DHT22;34722;52.108;5.044;2023-05-07T07:23:20;15.90;99.90
48912;DHT22;34722;52.108;5.044;2023-05-07T07:25:46;15.90;99.90
48912;DHT22;34722;52.108;5.044;2023-05-07T07:28:12;16.00;99.90
48912;DHT22;34722;52.108;5.044;2023-05-07T07:30:38;16.10;99.90
48912;DHT22;34722;52.108;5.044;2023-05-07T07:33:03;16.10;99.90
48912;DHT22;34722;52.108;5.044;2023-05-07T07:35:33;16.30;99.90
48912;DHT22;34722;52.108;5.044;2023-05-07T07:37:59;16.40;99.90
48912;DHT22;34722;52.108;5.044;2023-05-07T07:40:25;16.50;99.90
48912;DHT22;34722;52.108;5.044;2023-05-07T07:42:54;16.50;99.90
48912;DHT22;34722;52.108;5.044;2023-05-07T07:45:20;16.50;99.90
48912;DHT22;34722;52.108;5.044;2023-05-07T07:47:46;16.40;99.90
48912;DHT22;34722;52.108;5.044;2023-05-07T07:50:12;16.40;99.90
48912;DHT22;34722;52.108;5.044;2023-05-07T07:52:37;16.40;99.90
48912;DHT22;34722;52.108;5.044;2023-05-07T07:55:03;16.50;99.90
48912;DHT22;34722;52.108;5.044;2023-05-07T07:57:30;16.50;99.90
48912;DHT22;34722;52.108;5.044;2023-05-07T07:59:56;16.40;99.90
48912;DHT22;34722;52.108;5.044;2023-05-07T08:02:22;16.40;99.90
48912;DHT22;34722;52.108;5.044;2023-05-07T08:04:47;16.40;99.90
48912;DHT22;34722;52.108;5.044;2023-05-07T08:07:13;16.50;99.90
48912;DHT22;34722;52.108;5.044;2023-05-07T08:09:39;16.80;99.90
48912;DHT22;34722;52.108;5.044;2023-05-07T08:12:06;17.00;99.90
48912;DHT22;34722;52.108;5.044;2023-05-07T08:14:32;17.40;99.90
48912;DHT22;34722;52.108;5.044;2023-05-07T08:16:58;17.70;99.90
48912;DHT22;34722;52.108;5.044;2023-05-07T08:19:24;17.90;99.90
48912;DHT22;34722;52.108;5.044;2023-05-07T08:21:50;18.30;99.90
48912;DHT22;34722;52.108;5.044;2023-05-07T08:24:16;18.60;99.90
48912;DHT22;34722;52.108;5.044;2023-05-07T08:26:42;18.80;99.90
48912;DHT22;34722;52.108;5.044;2023-05-07T08:29:08;19.00;99.90
48912;DHT22;34722;52.108;5.044;2023-05-07T08:31:34;19.30;99.90
48912;DHT22;34722;52.108;5.044;2023-05-07T08:33:59;19.40;99.90
48912;DHT22;34722;52.108;5.044;2023-05-07T08:36:59;19.70;99.90
48912;DHT22;34722;52.108;5.044;2023-05-07T08:39:25;19.80;99.90
48912;DHT22;34722;52.108;5.044;2023-05-07T08:41:53;20.40;99.90
48912;DHT22;34722;52.108;5.044;2023-05-07T08:44:22;20.10;99.90
48912;DHT22;34722;52.108;5.044;2023-05-07T08:46:48;20.50;99.90
48912;DHT22;34722;52.108;5.044;2023-05-07T08:49:20;21.00;99.90
48912;DHT22;34722;52.108;5.044;2023-05-07T08:51:46;21.80;99.90
48912;DHT22;34722;52.108;5.044;2023-05-07T08:54:12;22.30;99.90
48912;DHT22;34722;52.108;5.044;2023-05-07T08:56:41;23.40;99.90
48912;DHT22;34722;52.108;5.044;2023-05-07T08:59:07;23.30;99.90
48912;DHT22;34722;52.108;5.044;2023-05-07T09:01:32;24.30;1.00
48912;DHT22;34722;52.108;5.044;2023-05-07T09:09:08;25.40;99.90
48912;DHT22;34722;52.108;5.044;2023-05-07T09:11:34;24.90;1.00
48912;DHT22;34722;52.108;5.044;2023-05-07T09:14:00;24.90;99.90
48912;DHT22;34722;52.108;5.044;2023-05-07T09:16:29;23.40;1.00
48912;DHT22;34722;52.108;5.044;2023-05-07T09:18:57;23.50;10.20
48912;DHT22;34722;52.108;5.044;2023-05-07T09:21:24;23.40;99.90
48912;DHT22;34722;52.108;5.044;2023-05-07T09:23:54;23.40;99.90
48912;DHT22;34722;52.108;5.044;2023-05-07T09:26:25;23.30;92.80
48912;DHT22;34722;52.108;5.044;2023-05-07T09:28:51;23.60;1.00
48912;DHT22;34722;52.108;5.044;2023-05-07T09:31:17;22.70;1.00
48912;DHT22;34722;52.108;5.044;2023-05-07T09:33:43;21.70;1.00
48912;DHT22;34722;52.108;5.044;2023-05-07T09:36:09;21.50;1.00
48912;DHT22;34722;52.108;5.044;2023-05-07T09:38:36;21.70;1.00
48912;DHT22;34722;52.108;5.044;2023-05-07T09:41:07;23.00;1.00
48912;DHT22;34722;52.108;5.044;2023-05-07T09:43:35;23.80;1.00
48912;DHT22;34722;52.108;5.044;2023-05-07T09:46:14;24.50;99.90
48912;DHT22;34722;52.108;5.044;2023-05-07T09:48:43;26.10;1.00
48912;DHT22;34722;52.108;5.044;2023-05-07T09:51:30;27.30;1.00
48912;DHT22;34722;52.108;5.044;2023-05-07T09:54:00;28.20;99.90
48912;DHT22;34722;52.108;5.044;2023-05-07T09:56:29;28.10;99.90
48912;DHT22;34722;52.108;5.044;2023-05-07T09:58:59;28.10;1.00
48912;DHT22;34722;52.108;5.044;2023-05-07T10:01:25;28.50;1.00
48912;DHT22;34722;52.108;5.044;2023-05-07T10:03:52;29.20;1.00
48912;DHT22;34722;52.108;5.044;2023-05-07T10:06:19;29.20;1.00
48912;DHT22;34722;52.108;5.044;2023-05-07T10:08:46;29.60;1.00
48912;DHT22;34722;52.108;5.044;2023-05-07T10:11:12;29.30;99.90
48912;DHT22;34722;52.108;5.044;2023-05-07T10:13:37;28.50;99.90
48912;DHT22;34722;52.108;5.044;2023-05-07T10:16:06;28.00;99.90
48912;DHT22;34722;52.108;5.044;2023-05-07T10:18:33;25.90;1.00
48912;DHT22;34722;52.108;5.044;2023-05-07T10:21:07;25.40;99.90
48912;DHT22;34722;52.108;5.044;2023-05-07T10:23:35;25.00;1.00
48912;DHT22;34722;52.108;5.044;2023-05-07T10:26:03;25.50;99.90
48912;DHT22;34722;52.108;5.044;2023-05-07T10:28:33;25.00;99.90
48912;DHT22;34722;52.108;5.044;2023-05-07T10:31:13;25.30;99.90
48912;DHT22;34722;52.108;5.044;2023-05-07T10:33:42;26.20;99.90
48912;DHT22;34722;52.108;5.044;2023-05-07T10:36:09;27.10;1.00
48912;DHT22;34722;52.108;5.044;2023-05-07T10:38:35;27.90;1.00
48912;DHT22;34722;52.108;5.044;2023-05-07T10:41:01;28.40;99.90
48912;DHT22;34722;52.108;5.044;2023-05-07T10:43:39;28.80;99.90
48912;DHT22;34722;52.108;5.044;2023-05-07T10:51:34;28.50;99.90
48912;DHT22;34722;52.108;5.044;2023-05-07T10:54:27;27.70;99.90
48912;DHT22;34722;52.108;5.044;2023-05-07T10:56:52;28.20;99.90
48912;DHT22;34722;52.108;5.044;2023-05-07T11:01:56;28.90;99.90
48912;DHT22;34722;52.108;5.044;2023-05-07T11:04:28;28.50;99.90
48912;DHT22;34722;52.108;5.044;2023-05-07T11:10:22;27.70;99.90
48912;DHT22;34722;52.108;5.044;2023-05-07T11:12:52;27.10;99.90
48912;DHT22;34722;52.108;5.044;2023-05-07T11:15:38;27.20;99.90
48912;DHT22;34722;52.108;5.044;2023-05-07T11:18:04;27.10;99.90
48912;DHT22;34722;52.108;5.044;2023-05-07T11:20:50;27.10;99.90
48912;DHT22;34722;52.108;5.044;2023-05-07T11:26:14;27.30;99.90
48912;DHT22;34722;52.108;5.044;2023-05-07T11:28:42;27.70;99.90
48912;DHT22;34722;52.108;5.044;2023-05-07T11:31:08;28.20;99.90
48912;DHT22;34722;52.108;5.044;2023-05-07T11:33:35;29.20;99.90
48912;DHT22;34722;52.108;5.044;2023-05-07T11:36:03;28.40;99.90
48912;DHT22;34722;52.108;5.044;2023-05-07T11:38:30;28.30;99.90
48912;DHT22;34722;52.108;5.044;2023-05-07T11:41:02;29.10;99.90
48912;DHT22;34722;52.108;5.044;2023-05-07T11:43:29;29.00;99.90
48912;DHT22;34722;52.108;5.044;2023-05-07T11:46:11;29.80;99.90
48912;DHT22;34722;52.108;5.044;2023-05-07T11:48:37;29.50;77.60
48912;DHT22;34722;52.108;5.044;2023-05-07T11:51:19;28.70;41.00
48912;DHT22;34722;52.108;5.044;2023-05-07T11:53:45;28.30;47.50
48912;DHT22;34722;52.108;5.044;2023-05-07T11:56:13;29.00;38.50
48912;DHT22;34722;52.108;5.044;2023-05-07T11:58:39;29.40;30.10
48912;DHT22;34722;52.108;5.044;2023-05-07T12:03:41;28.40;20.20
48912;DHT22;34722;52.108;5.044;2023-05-07T12:06:12;27.80;41.80
48912;DHT22;34722;52.108;5.044;2023-05-07T12:08:39;28.50;58.20
48912;DHT22;34722;52.108;5.044;2023-05-07T12:11:08;29.60;49.30
48912;DHT22;34722;52.108;5.044;2023-05-07T12:13:35;31.30;32.70
48912;DHT22;34722;52.108;5.044;2023-05-07T12:16:01;31.50;15.70
48912;DHT22;34722;52.108;5.044;2023-05-07T12:18:29;32.80;1.00
48912;DHT22;34722;52.108;5.044;2023-05-07T12:20:55;32.40;1.00
48912;DHT22;34722;52.108;5.044;2023-05-07T12:23:21;32.70;1.00
48912;DHT22;34722;52.108;5.044;2023-05-07T12:25:46;32.50;1.00
48912;DHT22;34722;52.108;5.044;2023-05-07T12:28:14;32.10;1.00
48912;DHT22;34722;52.108;5.044;2023-05-07T12:30:42;31.30;1.00
48912;DHT22;34722;52.108;5.044;2023-05-07T12:33:08;31.60;1.00
48912;DHT22;34722;52.108;5.044;2023-05-07T12:35:42;30.60;1.00
48912;DHT22;34722;52.108;5.044;2023-05-07T12:38:09;29.60;1.00
48912;DHT22;34722;52.108;5.044;2023-05-07T12:40:39;29.30;1.00
48912;DHT22;34722;52.108;5.044;2023-05-07T12:43:05;29.10;1.00
48912;DHT22;34722;52.108;5.044;2023-05-07T12:45:50;28.80;1.00
48912;DHT22;34722;52.108;5.044;2023-05-07T12:48:16;28.30;1.00
48912;DHT22;34722;52.108;5.044;2023-05-07T12:50:41;28.00;1.00
48912;DHT22;34722;52.108;5.044;2023-05-07T12:53:10;27.00;1.00
48912;DHT22;34722;52.108;5.044;2023-05-07T12:56:02;26.80;14.90
48912;DHT22;34722;52.108;5.044;2023-05-07T12:58:33;26.60;61.70
48912;DHT22;34722;52.108;5.044;2023-05-07T13:01:01;26.00;99.90
48912;DHT22;34722;52.108;5.044;2023-05-07T13:03:33;26.10;99.90
48912;DHT22;34722;52.108;5.044;2023-05-07T13:06:03;26.10;99.90
48912;DHT22;34722;52.108;5.044;2023-05-07T13:08:32;26.10;99.90
48912;DHT22;34722;52.108;5.044;2023-05-07T13:11:00;26.00;99.90
48912;DHT22;34722;52.108;5.044;2023-05-07T13:13:44;26.00;99.90
48912;DHT22;34722;52.108;5.044;2023-05-07T13:16:13;25.60;99.90
48912;DHT22;34722;52.108;5.044;2023-05-07T13:18:40;25.40;99.90
48912;DHT22;34722;52.108;5.044;2023-05-07T13:21:06;25.20;99.90
48912;DHT22;34722;52.108;5.044;2023-05-07T13:23:32;25.20;1.00
48912;DHT22;34722;52.108;5.044;2023-05-07T13:25:57;25.40;1.00
48912;DHT22;34722;52.108;5.044;2023-05-07T13:28:23;25.70;1.00
48912;DHT22;34722;52.108;5.044;2023-05-07T13:30:50;25.50;1.00
48912;DHT22;34722;52.108;5.044;2023-05-07T13:33:17;25.10;1.00
48912;DHT22;34722;52.108;5.044;2023-05-07T13:35:42;25.00;1.00
48912;DHT22;34722;52.108;5.044;2023-05-07T13:38:08;24.90;99.90
48912;DHT22;34722;52.108;5.044;2023-05-07T13:40:37;25.20;1.00
48912;DHT22;34722;52.108;5.044;2023-05-07T13:43:02;25.20;1.00
48912;DHT22;34722;52.108;5.044;2023-05-07T13:45:29;25.10;1.00
48912;DHT22;34722;52.108;5.044;2023-05-07T13:47:57;25.20;1.00
48912;DHT22;34722;52.108;5.044;2023-05-07T13:50:23;25.20;99.90
48912;DHT22;34722;52.108;5.044;2023-05-07T13:52:52;25.20;99.90
48912;DHT22;34722;52.108;5.044;2023-05-07T13:55:19;25.00;99.90
48912;DHT22;34722;52.108;5.044;2023-05-07T13:57:59;24.80;99.90
48912;DHT22;34722;52.108;5.044;2023-05-07T14:00:26;24.60;99.90
48912;DHT22;34722;52.108;5.044;2023-05-07T14:02:52;24.50;99.90
48912;DHT22;34722;52.108;5.044;2023-05-07T14:05:18;24.40;99.90
48912;DHT22;34722;52.108;5.044;2023-05-07T14:07:44;24.30;1.00
48912;DHT22;34722;52.108;5.044;2023-05-07T14:10:10;24.30;99.90
48912;DHT22;34722;52.108;5.044;2023-05-07T14:12:36;24.10;1.00
48912;DHT22;34722;52.108;5.044;2023-05-07T14:15:03;24.10;1.00
48912;DHT22;34722;52.108;5.044;2023-05-07T14:17:28;24.10;1.00
48912;DHT22;34722;52.108;5.044;2023-05-07T14:19:54;23.90;1.00
48912;DHT22;34722;52.108;5.044;2023-05-07T14:22:49;23.50;1.00
48912;DHT22;34722;52.108;5.044;2023-05-07T14:25:15;23.10;99.90
48912;DHT22;34722;52.108;5.044;2023-05-07T14:31:00;22.00;1.00
48912;DHT22;34722;52.108;5.044;2023-05-07T15:52:57;18.50;99.90
48912;DHT22;34722;52.108;5.044;2023-05-07T15:55:27;18.90;99.90
48912;DHT22;34722;52.108;5.044;2023-05-07T15:57:55;19.30;99.90
48912;DHT22;34722;52.108;5.044;2023-05-07T16:00:32;19.40;99.90
48912;DHT22;34722;52.108;5.044;2023-05-07T16:03:02;19.50;99.90
48912;DHT22;34722;52.108;5.044;2023-05-07T16:05:30;19.30;99.90
48912;DHT22;34722;52.108;5.044;2023-05-07T16:07:56;19.10;99.90
48912;DHT22;34722;52.108;5.044;2023-05-07T16:10:22;18.90;99.90
48912;DHT22;34722;52.108;5.044;2023-05-07T16:12:48;18.80;99.90
48912;DHT22;34722;52.108;5.044;2023-05-07T16:15:14;18.90;99.90
48912;DHT22;34722;52.108;5.044;2023-05-07T16:18:03;19.10;99.90
48912;DHT22;34722;52.108;5.044;2023-05-07T16:21:04;19.10;99.90
48912;DHT22;34722;52.108;5.044;2023-05-07T16:27:43;19.30;99.90
48912;DHT22;34722;52.108;5.044;2023-05-07T16:30:09;19.20;99.90
48912;DHT22;34722;52.108;5.044;2023-05-07T16:32:39;19.10;99.90
48912;DHT22;34722;52.108;5.044;2023-05-07T16:35:05;19.10;99.90
48912;DHT22;34722;52.108;5.044;2023-05-07T16:37:32;19.10;99.90
48912;DHT22;34722;52.108;5.044;2023-05-07T16:40:02;19.10;99.90
48912;DHT22;34722;52.108;5.044;2023-05-07T16:42:37;18.90;99.90
48912;DHT22;34722;52.108;5.044;2023-05-07T17:16:19;18.40;99.90
48912;DHT22;34722;52.108;5.044;2023-05-07T17:18:45;18.50;99.90
48912;DHT22;34722;52.108;5.044;2023-05-07T18:24:04;17.50;99.90
48912;DHT22;34722;52.108;5.044;2023-05-07T18:26:34;17.50;99.90
48912;DHT22;34722;52.108;5.044;2023-05-07T18:29:00;17.50;99.90
48912;DHT22;34722;52.108;5.044;2023-05-07T18:31:25;17.40;99.90
48912;DHT22;34722;52.108;5.044;2023-05-07T18:33:51;17.40;99.90
48912;DHT22;34722;52.108;5.044;2023-05-07T18:36:17;17.20;99.90
48912;DHT22;34722;52.108;5.044;2023-05-07T18:38:43;17.20;99.90
48912;DHT22;34722;52.108;5.044;2023-05-07T18:41:12;17.00;99.90
48912;DHT22;34722;52.108;5.044;2023-05-07T18:43:38;16.90;99.90
48912;DHT22;34722;52.108;5.044;2023-05-07T18:46:03;16.90;99.90
48912;DHT22;34722;52.108;5.044;2023-05-07T18:48:33;16.90;99.90
48912;DHT22;34722;52.108;5.044;2023-05-07T18:50:59;16.90;99.90
48912;DHT22;34722;52.108;5.044;2023-05-07T18:53:25;16.80;99.90
48912;DHT22;34722;52.108;5.044;2023-05-07T18:55:51;16.70;99.90
48912;DHT22;34722;52.108;5.044;2023-05-07T18:58:18;16.70;99.90
48912;DHT22;34722;52.108;5.044;2023-05-07T19:00:47;16.60;99.90
48912;DHT22;34722;52.108;5.044;2023-05-07T19:03:14;16.60;99.90
48912;DHT22;34722;52.108;5.044;2023-05-07T19:05:42;16.60;99.90